Peasleeville, New York
Current Conditions -  °F | °C
As of 8:53 PM on Tuesday 25 Nov 2014 (Local Time) from KPBG Reporting Station
Overcast Overcast  
Wind Chill: 37°   Ceiling: 4200
Heat Index: 42°   Visibility: 10mi
Dew Point: 30°   Wind: 8mph
Humidity: 62%   Direction: 240°WSW
Pressure: 30.02"   Gusts: 18mph
Location:  44.5605°N, 73.7592°W
Report Text: KPBG 260153Z AUTO 24007G16KT 200V260 10SM BKN042 OVC055 06/M01 A3002 RMK AO2 SLP166 T00561011
Loading
Personal Weather Stations






























Interactive Weather Map New forecast layout! Learn more

10-Day Weather Forecast

Advertisements
Track Severe Weather on mobile